Time;durP1;ratioP1;P1;durP2;ratioP2;P2;SDS_P1;SDS_P2;PMS_P1;PMS_P2;Temp;Humidity;BMP_temperature;BMP_pressure;BME280_temperature;BME280_humidity;BME280_pressure;Samples;Min_cycle;Max_cycle;Signal;HPM_P1;HPM_P2
2022/09/16 00:00:52;;;;;;;;;;;14.40;99.90;;;;;;4973537;28;20013;-79
2022/09/16 00:03:22;;;;;;;;;;;14.30;99.90;;;;;;4971705;28;20390;-77
2022/09/16 00:05:49;;;;;;;;;;;;;;;;;;4974824;28;20305;-77
2022/09/16 00:08:18;;;;;;;;;;;14.30;99.90;;;;;;4959079;28;19937;-79
2022/09/16 00:11:01;;;;;;;;;;;;;;;;;;;;;
2022/09/16 00:13:28;;;;;;;;;;;14.20;99.90;;;;;;4970699;28;19930;-77
2022/09/16 00:15:55;;;;;;;;;;;14.20;99.90;;;;;;4973878;28;19968;-77
2022/09/16 00:18:22;;;;;;;;;;;14.20;99.90;;;;;;4970435;28;19969;-78
2022/09/16 00:20:50;;;;;;;;;;;14.10;99.90;;;;;;4953804;28;19926;-77
2022/09/16 00:23:18;;;;;;;;;;;14.10;99.90;;;;;;4972028;28;20028;-78
2022/09/16 00:25:49;;;;;;;;;;;14.10;99.90;;;;;;4972199;28;19930;-77
2022/09/16 00:28:17;;;;;;;;;;;14.10;99.90;;;;;;4972852;28;20292;-79
2022/09/16 00:30:44;;;;;;;;;;;14.10;99.90;;;;;;4972637;28;19937;-77
2022/09/16 00:33:11;;;;;;;;;;;14.00;99.90;;;;;;4972338;28;19930;-77
2022/09/16 00:35:38;;;;;;;;;;;14.00;99.90;;;;;;4975496;28;20013;-77
2022/09/16 00:38:04;;;;;;;;;;;14.00;99.90;;;;;;4971344;28;19944;-78
2022/09/16 00:40:33;;;;;;;;;;;14.00;99.90;;;;;;4970643;28;19930;-77
2022/09/16 00:43:00;;;;;;;;;;;13.90;99.90;;;;;;4977915;28;20317;-77
2022/09/16 00:45:30;;;;;;;;;;;13.90;99.90;;;;;;4973027;28;19937;-78
2022/09/16 00:47:59;;;;;;;;;;;13.80;99.90;;;;;;4969497;28;19930;-78
2022/09/16 00:50:26;;;;;;;;;;;;;;;;;;4969714;28;20361;-78
2022/09/16 00:52:53;;;;;;;;;;;13.90;99.90;;;;;;4971058;28;20294;-77
2022/09/16 00:55:23;;;;;;;;;;;13.90;99.90;;;;;;4972599;28;19934;-77
2022/09/16 00:57:51;;;;;;;;;;;;;;;;;;4969963;28;19930;-77
2022/09/16 01:00:19;;;;;;;;;;;13.80;99.90;;;;;;4970189;28;19926;-78
2022/09/16 01:02:47;;;;;;;;;;;13.80;99.90;;;;;;4972915;28;20000;-77
2022/09/16 01:05:15;;;;;;;;;;;13.80;99.90;;;;;;4973342;28;20009;-80
2022/09/16 01:07:44;;;;;;;;;;;13.80;99.90;;;;;;5028407;23;19989;-74
2022/09/16 01:10:11;;;;;;;;;;;13.80;99.90;;;;;;4965573;28;19930;-74
2022/09/16 01:12:39;;;;;;;;;;;13.80;99.90;;;;;;4966615;28;19930;-75
2022/09/16 01:15:06;;;;;;;;;;;13.70;99.90;;;;;;4975457;28;19926;-75
2022/09/16 01:17:43;;;;;;;;;;;13.80;99.90;;;;;;4967393;28;19929;-75
2022/09/16 01:20:20;;;;;;;;;;;13.70;99.90;;;;;;4970998;28;19941;-75
2022/09/16 01:22:56;;;;;;;;;;;13.80;99.90;;;;;;4973960;28;20519;-75
2022/09/16 01:25:31;;;;;;;;;;;13.80;99.90;;;;;;4971830;28;20320;-74
2022/09/16 01:28:16;;;;;;;;;;;13.70;99.90;;;;;;4975379;28;19930;-75
2022/09/16 01:30:47;;;;;;;;;;;13.80;99.90;;;;;;4974806;28;19941;-75
2022/09/16 01:33:18;;;;;;;;;;;13.80;99.90;;;;;;4973014;28;19952;-74
2022/09/16 01:35:50;;;;;;;;;;;13.80;99.90;;;;;;4972445;28;19969;-75
2022/09/16 01:38:26;;;;;;;;;;;13.80;99.90;;;;;;4975993;28;19926;-75
2022/09/16 01:40:55;;;;;;;;;;;13.80;99.90;;;;;;4973589;28;19969;-73
2022/09/16 01:43:25;;;;;;;;;;;13.80;99.90;;;;;;4972596;28;19925;-73
2022/09/16 01:45:56;;;;;;;;;;;13.80;99.90;;;;;;4971759;28;20388;-75
2022/09/16 01:48:27;;;;;;;;;;;13.80;99.90;;;;;;4971245;28;19930;-73
2022/09/16 01:50:59;;;;;;;;;;;13.80;99.90;;;;;;4974548;28;19934;-75
2022/09/16 01:53:30;;;;;;;;;;;13.80;99.90;;;;;;4967494;28;19938;-75
2022/09/16 01:55:59;;;;;;;;;;;13.90;99.90;;;;;;4976208;28;20028;-74
2022/09/16 01:58:27;;;;;;;;;;;13.80;99.90;;;;;;4969411;28;19934;-73
2022/09/16 02:00:59;;;;;;;;;;;13.80;99.90;;;;;;4978499;28;19936;-75
2022/09/16 02:03:28;;;;;;;;;;;13.80;99.90;;;;;;4968499;28;19942;-74
2022/09/16 02:05:57;;;;;;;;;;;13.80;99.90;;;;;;4976877;28;19930;-75
2022/09/16 02:08:27;;;;;;;;;;;13.80;99.90;;;;;;4969785;28;20245;-75
2022/09/16 02:10:57;;;;;;;;;;;13.80;99.90;;;;;;4971831;28;20307;-75
2022/09/16 02:13:26;;;;;;;;;;;13.80;99.90;;;;;;4976023;28;19941;-75
2022/09/16 02:15:56;;;;;;;;;;;13.80;99.90;;;;;;4972011;28;20385;-75
2022/09/16 02:18:26;;;;;;;;;;;13.80;99.90;;;;;;4975528;28;19929;-75
2022/09/16 02:20:55;;;;;;;;;;;13.80;99.90;;;;;;4972298;28;20492;-74
2022/09/16 02:23:23;;;;;;;;;;;13.80;99.90;;;;;;4972295;28;19949;-73
2022/09/16 02:25:50;;;;;;;;;;;13.80;99.90;;;;;;4972400;28;19949;-73
2022/09/16 02:28:19;;;;;;;;;;;13.80;99.90;;;;;;4973532;28;20446;-75
2022/09/16 02:30:49;;;;;;;;;;;13.80;99.90;;;;;;4967317;28;21385;-74
2022/09/16 02:33:17;;;;;;;;;;;13.80;99.90;;;;;;4975512;28;19926;-75
2022/09/16 02:35:47;;;;;;;;;;;13.70;99.90;;;;;;4974168;28;19926;-75
2022/09/16 02:38:16;;;;;;;;;;;13.70;99.90;;;;;;4970690;28;19926;-74
2022/09/16 02:40:45;;;;;;;;;;;13.70;99.90;;;;;;4970526;28;19929;-75
2022/09/16 02:43:12;;;;;;;;;;;13.70;99.90;;;;;;4973941;28;19933;-75
2022/09/16 02:45:42;;;;;;;;;;;13.60;99.90;;;;;;4959752;28;20417;-75
2022/09/16 02:48:13;;;;;;;;;;;13.60;99.90;;;;;;4972672;28;19925;-74
2022/09/16 02:50:41;;;;;;;;;;;13.60;99.90;;;;;;4971637;28;20320;-75
2022/09/16 02:53:17;;;;;;;;;;;13.60;99.90;;;;;;4969620;28;20339;-74
2022/09/16 02:55:48;;;;;;;;;;;13.50;99.90;;;;;;4964757;28;19930;-75
2022/09/16 02:58:15;;;;;;;;;;;13.50;99.90;;;;;;4970614;28;20281;-75
2022/09/16 03:00:45;;;;;;;;;;;13.50;99.90;;;;;;4967068;28;19930;-75
2022/09/16 03:03:12;;;;;;;;;;;13.50;99.90;;;;;;4967755;28;20059;-76
2022/09/16 03:05:49;;;;;;;;;;;13.50;99.90;;;;;;4967022;28;19950;-73
2022/09/16 03:08:17;;;;;;;;;;;13.50;99.90;;;;;;4968667;28;19933;-75
2022/09/16 03:10:45;;;;;;;;;;;13.50;99.90;;;;;;4968232;28;19933;-75
2022/09/16 03:13:17;;;;;;;;;;;13.50;99.90;;;;;;4968133;28;20348;-75
2022/09/16 03:15:56;;;;;;;;;;;13.50;99.90;;;;;;4972413;28;19932;-75
2022/09/16 03:18:28;;;;;;;;;;;13.50;99.90;;;;;;4969259;28;20008;-75
2022/09/16 03:21:00;;;;;;;;;;;13.50;99.90;;;;;;4968147;28;20009;-75
2022/09/16 03:23:34;;;;;;;;;;;13.50;99.90;;;;;;4967453;28;20923;-75
2022/09/16 03:26:06;;;;;;;;;;;13.60;99.90;;;;;;4973824;28;19934;-75
2022/09/16 03:28:37;;;;;;;;;;;13.50;99.90;;;;;;4973620;28;19984;-74
2022/09/16 03:31:06;;;;;;;;;;;13.50;99.90;;;;;;4967460;28;19934;-75
2022/09/16 03:33:35;;;;;;;;;;;13.50;99.90;;;;;;4970970;28;19934;-73
2022/09/16 03:36:05;;;;;;;;;;;13.50;99.90;;;;;;4972083;28;20339;-74
2022/09/16 03:38:34;;;;;;;;;;;13.50;99.90;;;;;;4966078;28;20056;-75
2022/09/16 03:41:01;;;;;;;;;;;13.50;99.90;;;;;;4971816;28;20257;-75
2022/09/16 03:43:28;;;;;;;;;;;13.50;99.90;;;;;;4974183;28;21345;-74
2022/09/16 03:45:55;;;;;;;;;;;13.50;99.90;;;;;;4963410;28;20183;-74
2022/09/16 03:48:22;;;;;;;;;;;13.50;99.90;;;;;;4969806;28;20404;-75
2022/09/16 03:50:49;;;;;;;;;;;13.50;99.90;;;;;;4969814;28;19926;-73
2022/09/16 03:53:16;;;;;;;;;;;13.50;99.90;;;;;;4970675;28;20024;-75
2022/09/16 03:55:45;;;;;;;;;;;13.50;99.90;;;;;;4968475;28;19960;-73
2022/09/16 03:58:12;;;;;;;;;;;13.50;99.90;;;;;;4969116;28;19926;-74
2022/09/16 04:00:39;;;;;;;;;;;13.50;99.90;;;;;;4967541;28;20427;-75
2022/09/16 04:03:06;;;;;;;;;;;13.50;99.90;;;;;;4971673;28;19933;-72
2022/09/16 04:05:35;;;;;;;;;;;13.50;99.90;;;;;;4971343;28;20706;-73
2022/09/16 04:08:01;;;;;;;;;;;13.50;99.90;;;;;;4970808;28;19933;-75
2022/09/16 04:10:28;;;;;;;;;;;13.50;99.90;;;;;;4968807;28;20010;-75
2022/09/16 04:12:58;;;;;;;;;;;13.50;99.90;;;;;;4969429;28;19977;-73
2022/09/16 04:15:25;;;;;;;;;;;13.50;99.90;;;;;;4972652;28;19926;-74
2022/09/16 04:17:52;;;;;;;;;;;13.50;99.90;;;;;;4972053;28;19940;-73
2022/09/16 04:20:19;;;;;;;;;;;13.50;99.90;;;;;;4967812;28;19989;-74
2022/09/16 04:22:46;;;;;;;;;;;13.40;99.90;;;;;;4969332;28;19944;-74
2022/09/16 04:25:12;;;;;;;;;;;13.40;99.90;;;;;;4970104;28;19949;-73
2022/09/16 04:27:39;;;;;;;;;;;13.50;99.90;;;;;;4963657;28;19930;-74
2022/09/16 04:30:08;;;;;;;;;;;13.40;99.90;;;;;;4971901;28;20285;-74
2022/09/16 04:32:35;;;;;;;;;;;13.40;99.90;;;;;;4972822;28;19937;-73
2022/09/16 04:35:02;;;;;;;;;;;13.40;99.90;;;;;;4974320;28;19926;-74
2022/09/16 04:37:30;;;;;;;;;;;13.40;99.90;;;;;;4967544;28;19969;-73
2022/09/16 04:39:57;;;;;;;;;;;13.40;99.90;;;;;;4968004;28;19937;-74
2022/09/16 04:42:24;;;;;;;;;;;13.40;99.90;;;;;;4968086;28;20425;-72
2022/09/16 04:44:51;;;;;;;;;;;13.40;99.90;;;;;;4969217;28;19933;-73
2022/09/16 04:47:19;;;;;;;;;;;13.40;99.90;;;;;;4969520;28;19926;-73
2022/09/16 04:49:46;;;;;;;;;;;13.40;99.90;;;;;;4973520;28;20437;-74
2022/09/16 04:52:12;;;;;;;;;;;13.40;99.90;;;;;;4974937;28;19930;-75
2022/09/16 04:54:39;;;;;;;;;;;13.40;99.90;;;;;;4976057;28;20020;-73
2022/09/16 04:57:06;;;;;;;;;;;13.40;99.90;;;;;;4983992;28;19976;-75
2022/09/16 04:59:33;;;;;;;;;;;13.40;99.90;;;;;;4982814;28;19932;-74
2022/09/16 05:02:00;;;;;;;;;;;13.40;99.90;;;;;;4974160;28;19940;-75
2022/09/16 05:04:28;;;;;;;;;;;13.30;99.90;;;;;;4976461;28;19964;-76
2022/09/16 05:06:54;;;;;;;;;;;13.30;99.90;;;;;;4979291;28;19930;-74
2022/09/16 05:09:21;;;;;;;;;;;13.30;99.90;;;;;;4978733;28;20301;-75
2022/09/16 05:11:48;;;;;;;;;;;13.30;99.90;;;;;;4967810;28;19934;-74
2022/09/16 05:14:16;;;;;;;;;;;13.40;99.90;;;;;;4975298;28;20029;-76
2022/09/16 05:16:43;;;;;;;;;;;13.30;99.90;;;;;;4972907;28;20300;-74
2022/09/16 05:19:10;;;;;;;;;;;13.30;99.90;;;;;;4967538;28;19936;-76
2022/09/16 05:21:39;;;;;;;;;;;13.30;99.90;;;;;;4971996;28;19927;-74
2022/09/16 05:24:07;;;;;;;;;;;13.30;99.90;;;;;;4970405;28;20508;-75
2022/09/16 05:26:35;;;;;;;;;;;13.30;99.90;;;;;;4987905;28;19996;-75
2022/09/16 05:29:02;;;;;;;;;;;13.40;99.90;;;;;;4988356;28;20021;-75
2022/09/16 05:31:30;;;;;;;;;;;13.40;99.90;;;;;;4976763;28;20308;-75
2022/09/16 05:33:58;;;;;;;;;;;13.40;99.90;;;;;;4977271;28;19949;-75
2022/09/16 05:36:25;;;;;;;;;;;13.30;99.90;;;;;;4980290;28;19936;-74
2022/09/16 05:38:53;;;;;;;;;;;13.30;99.90;;;;;;4977559;28;20285;-75
2022/09/16 05:41:20;;;;;;;;;;;13.30;99.90;;;;;;4980914;28;20353;-75
2022/09/16 05:43:47;;;;;;;;;;;13.30;99.90;;;;;;4981086;28;20036;-76
2022/09/16 05:46:17;;;;;;;;;;;13.30;99.90;;;;;;4980450;28;20027;-75
2022/09/16 05:48:44;;;;;;;;;;;13.40;99.90;;;;;;4975448;28;19926;-76
2022/09/16 05:51:13;;;;;;;;;;;13.40;99.90;;;;;;4978120;28;19933;-75
2022/09/16 05:53:39;;;;;;;;;;;13.40;99.90;;;;;;4977008;28;19926;-75
2022/09/16 05:56:08;;;;;;;;;;;13.40;99.90;;;;;;4980803;28;19930;-76
2022/09/16 05:58:35;;;;;;;;;;;13.40;99.90;;;;;;4976507;28;19982;-74
2022/09/16 06:01:04;;;;;;;;;;;13.40;99.90;;;;;;4975035;28;19957;-76
2022/09/16 06:03:31;;;;;;;;;;;13.30;99.90;;;;;;4975574;28;19926;-76
2022/09/16 06:06:01;;;;;;;;;;;13.40;99.90;;;;;;4976593;28;19980;-76
2022/09/16 06:08:28;;;;;;;;;;;13.40;99.90;;;;;;4978440;28;19973;-76
2022/09/16 06:10:55;;;;;;;;;;;13.40;99.90;;;;;;4982338;28;19941;-74
2022/09/16 06:13:23;;;;;;;;;;;13.30;99.90;;;;;;4974962;28;19933;-74
2022/09/16 06:15:53;;;;;;;;;;;13.30;99.90;;;;;;4977241;28;20356;-76
2022/09/16 06:18:19;;;;;;;;;;;13.30;99.90;;;;;;4979546;28;19932;-75
2022/09/16 06:20:46;;;;;;;;;;;13.30;99.90;;;;;;4980419;28;19933;-76
2022/09/16 06:23:14;;;;;;;;;;;13.30;99.90;;;;;;4977802;28;19972;-75
2022/09/16 06:25:40;;;;;;;;;;;13.30;99.90;;;;;;4979341;28;19934;-74
2022/09/16 06:28:08;;;;;;;;;;;13.30;99.90;;;;;;4977816;28;20308;-75
2022/09/16 06:30:36;;;;;;;;;;;13.40;99.90;;;;;;4976404;28;19926;-75
2022/09/16 06:33:03;;;;;;;;;;;13.30;99.90;;;;;;4979495;28;19933;-75
2022/09/16 06:35:30;;;;;;;;;;;13.30;99.90;;;;;;4978268;28;19957;-75
2022/09/16 06:37:57;;;;;;;;;;;13.30;99.90;;;;;;4980006;28;19934;-75
2022/09/16 06:40:24;;;;;;;;;;;13.30;99.90;;;;;;4971726;28;20456;-75
2022/09/16 06:42:52;;;;;;;;;;;13.30;99.90;;;;;;4975290;28;19926;-75
2022/09/16 06:45:19;;;;;;;;;;;13.30;99.90;;;;;;4974673;28;20008;-76
2022/09/16 06:47:47;;;;;;;;;;;13.30;99.90;;;;;;4976052;28;20316;-75
2022/09/16 06:50:14;;;;;;;;;;;13.30;99.90;;;;;;4977188;28;19930;-75
2022/09/16 06:52:41;;;;;;;;;;;13.30;99.90;;;;;;4975874;28;19926;-75
2022/09/16 06:55:08;;;;;;;;;;;13.40;99.90;;;;;;4978407;28;19980;-75
2022/09/16 06:57:35;;;;;;;;;;;13.30;99.90;;;;;;4981845;28;19932;-74
2022/09/16 07:00:02;;;;;;;;;;;13.30;99.90;;;;;;4979956;28;19981;-75
2022/09/16 07:02:30;;;;;;;;;;;13.40;99.90;;;;;;4983872;28;19925;-75
2022/09/16 07:04:58;;;;;;;;;;;13.40;99.90;;;;;;4973997;28;19930;-75
2022/09/16 07:07:25;;;;;;;;;;;13.40;99.90;;;;;;4977575;28;20313;-76
2022/09/16 07:09:52;;;;;;;;;;;13.40;99.90;;;;;;4980836;28;20057;-76
2022/09/16 07:12:19;;;;;;;;;;;13.40;99.90;;;;;;4977011;28;20068;-75
2022/09/16 07:14:46;;;;;;;;;;;13.40;99.90;;;;;;4968095;28;20011;-75
2022/09/16 07:17:12;;;;;;;;;;;13.40;99.90;;;;;;4967076;28;19930;-75
2022/09/16 07:19:41;;;;;;;;;;;13.40;99.90;;;;;;4975856;28;20389;-74
2022/09/16 07:22:10;;;;;;;;;;;13.40;99.90;;;;;;4971667;28;20462;-74
2022/09/16 07:24:37;;;;;;;;;;;13.40;99.90;;;;;;4977799;28;20049;-75
2022/09/16 07:27:03;;;;;;;;;;;13.50;99.90;;;;;;4973161;28;19945;-75
2022/09/16 07:29:30;;;;;;;;;;;13.50;99.90;;;;;;4977094;28;20012;-76
2022/09/16 07:31:57;;;;;;;;;;;13.60;99.90;;;;;;4978316;28;19987;-75
2022/09/16 07:34:24;;;;;;;;;;;13.60;99.90;;;;;;4983019;28;19926;-75
2022/09/16 07:36:51;;;;;;;;;;;13.60;99.90;;;;;;4985026;28;19964;-76
2022/09/16 07:39:20;;;;;;;;;;;13.70;99.90;;;;;;4985843;28;20451;-75
2022/09/16 07:41:48;;;;;;;;;;;13.70;99.90;;;;;;4980394;28;19929;-76
2022/09/16 07:44:15;;;;;;;;;;;13.70;99.90;;;;;;4979707;28;19926;-76
2022/09/16 07:46:42;;;;;;;;;;;13.70;99.90;;;;;;4977019;28;19934;-76
2022/09/16 07:49:10;;;;;;;;;;;13.70;99.90;;;;;;4980705;28;19933;-75
2022/09/16 07:51:37;;;;;;;;;;;13.70;99.90;;;;;;4982006;28;20006;-75
2022/09/16 07:54:05;;;;;;;;;;;13.70;99.90;;;;;;4980982;28;20033;-75
2022/09/16 07:56:34;;;;;;;;;;;13.70;99.90;;;;;;4983952;28;19937;-75
2022/09/16 07:59:01;;;;;;;;;;;13.70;99.90;;;;;;4983979;28;20349;-75
2022/09/16 08:01:29;;;;;;;;;;;13.70;99.90;;;;;;4977200;28;19973;-75
2022/09/16 08:03:57;;;;;;;;;;;13.80;99.90;;;;;;4980945;28;19930;-75
2022/09/16 08:06:24;;;;;;;;;;;13.70;99.90;;;;;;4985133;28;19976;-76
2022/09/16 08:08:52;;;;;;;;;;;13.80;99.90;;;;;;4982153;28;19933;-76
2022/09/16 08:11:19;;;;;;;;;;;13.80;99.90;;;;;;4977115;28;19961;-76
2022/09/16 08:13:47;;;;;;;;;;;13.80;99.90;;;;;;4981417;28;19948;-75
2022/09/16 08:16:15;;;;;;;;;;;13.80;99.90;;;;;;4979351;28;20389;-76
2022/09/16 08:18:42;;;;;;;;;;;13.80;99.90;;;;;;4982799;28;20392;-75
2022/09/16 08:21:10;;;;;;;;;;;13.80;99.90;;;;;;4980930;28;19972;-75
2022/09/16 08:23:37;;;;;;;;;;;13.80;99.90;;;;;;4982167;28;19929;-75
2022/09/16 08:26:07;;;;;;;;;;;13.80;99.90;;;;;;4985348;28;19929;-75
2022/09/16 08:28:34;;;;;;;;;;;13.80;99.90;;;;;;4981946;28;19930;-75
2022/09/16 08:31:02;;;;;;;;;;;13.80;99.90;;;;;;4981300;28;19952;-76
2022/09/16 08:33:29;;;;;;;;;;;13.80;99.90;;;;;;4984615;28;19969;-74
2022/09/16 08:35:59;;;;;;;;;;;13.80;99.90;;;;;;4980066;28;19932;-74
2022/09/16 08:38:26;;;;;;;;;;;13.80;99.90;;;;;;4980315;28;20033;-76
2022/09/16 08:40:56;;;;;;;;;;;13.70;99.90;;;;;;4986444;28;20052;-74
2022/09/16 08:43:28;;;;;;;;;;;13.70;99.90;;;;;;4984315;28;20061;-75
2022/09/16 08:45:57;;;;;;;;;;;13.70;99.90;;;;;;4977005;28;20013;-75
2022/09/16 08:48:31;;;;;;;;;;;13.70;99.90;;;;;;4984888;28;19969;-75
2022/09/16 08:50:59;;;;;;;;;;;13.70;99.90;;;;;;4974101;28;19985;-73
2022/09/16 08:53:32;;;;;;;;;;;13.70;99.90;;;;;;4984841;28;19926;-75
2022/09/16 08:56:02;;;;;;;;;;;13.70;99.90;;;;;;4977636;28;19926;-76
2022/09/16 08:58:31;;;;;;;;;;;13.70;99.90;;;;;;4982936;28;20456;-75
2022/09/16 09:00:59;;;;;;;;;;;13.60;99.90;;;;;;4983657;28;19937;-74
2022/09/16 09:03:33;;;;;;;;;;;13.60;99.90;;;;;;4983149;28;20397;-74
2022/09/16 09:06:02;;;;;;;;;;;13.60;99.90;;;;;;4981056;28;19926;-74
2022/09/16 09:08:34;;;;;;;;;;;13.60;99.90;;;;;;4986606;28;19926;-75
2022/09/16 09:11:05;;;;;;;;;;;13.60;99.90;;;;;;4985239;28;19929;-74
2022/09/16 09:13:44;;;;;;;;;;;13.50;99.90;;;;;;4971337;28;20419;-75
2022/09/16 09:16:16;;;;;;;;;;;13.50;99.90;;;;;;4979227;28;19961;-75
2022/09/16 09:18:50;;;;;;;;;;;13.50;99.90;;;;;;4985194;28;20301;-75
2022/09/16 09:21:21;;;;;;;;;;;13.50;99.90;;;;;;4980403;28;19933;-76
2022/09/16 09:24:06;;;;;;;;;;;13.50;99.90;;;;;;4985165;28;19969;-75
2022/09/16 09:26:38;;;;;;;;;;;13.50;99.90;;;;;;4985784;28;19972;-75
2022/09/16 09:29:20;;;;;;;;;;;13.50;99.90;;;;;;4978822;28;20008;-74
2022/09/16 09:31:52;;;;;;;;;;;13.50;99.90;;;;;;4971581;28;20114;-75
2022/09/16 09:34:28;;;;;;;;;;;13.50;99.90;;;;;;4979509;28;19992;-75
2022/09/16 09:37:01;;;;;;;;;;;13.40;99.90;;;;;;4973540;28;20017;-74
2022/09/16 09:39:34;;;;;;;;;;;13.40;99.90;;;;;;4977842;28;20064;-75
2022/09/16 09:42:06;;;;;;;;;;;13.40;99.90;;;;;;4979118;28;20028;-72
2022/09/16 09:44:41;;;;;;;;;;;13.40;99.90;;;;;;4986332;28;19976;-74
2022/09/16 09:47:10;;;;;;;;;;;13.40;99.90;;;;;;4975987;28;20372;-76
2022/09/16 09:49:40;;;;;;;;;;;13.40;99.90;;;;;;4980146;28;19930;-76
2022/09/16 09:52:10;;;;;;;;;;;13.40;99.90;;;;;;4980658;28;20013;-76
2022/09/16 09:54:40;;;;;;;;;;;13.40;99.90;;;;;;4978060;28;19969;-75
2022/09/16 09:57:12;;;;;;;;;;;13.40;99.90;;;;;;4976791;28;19926;-77
2022/09/16 09:59:43;;;;;;;;;;;13.40;99.90;;;;;;4981982;28;19973;-79
2022/09/16 10:02:14;;;;;;;;;;;13.40;99.90;;;;;;4977339;28;19930;-77
2022/09/16 10:04:42;;;;;;;;;;;13.40;99.90;;;;;;4979026;28;19926;-75
2022/09/16 10:07:09;;;;;;;;;;;13.40;99.90;;;;;;4980751;28;19961;-75
2022/09/16 10:09:36;;;;;;;;;;;13.30;99.90;;;;;;4984356;28;20020;-74
2022/09/16 10:12:04;;;;;;;;;;;13.40;99.90;;;;;;4980719;28;19980;-75
2022/09/16 10:14:32;;;;;;;;;;;13.40;99.90;;;;;;4981095;28;19930;-76
2022/09/16 10:17:01;;;;;;;;;;;13.40;99.90;;;;;;4977499;28;19934;-75
2022/09/16 10:19:29;;;;;;;;;;;13.40;99.90;;;;;;4982774;28;19937;-76
2022/09/16 10:22:10;;;;;;;;;;;13.40;99.90;;;;;;4975412;28;19934;-75
2022/09/16 10:24:37;;;;;;;;;;;13.40;99.90;;;;;;4982168;28;19938;-78
2022/09/16 10:27:18;;;;;;;;;;;13.40;99.90;;;;;;4977060;28;19980;-77
2022/09/16 10:29:45;;;;;;;;;;;13.50;99.90;;;;;;4981623;28;20456;-77
2022/09/16 10:32:15;;;;;;;;;;;13.50;99.90;;;;;;4985378;28;19929;-79
2022/09/16 10:34:42;;;;;;;;;;;13.50;99.90;;;;;;4981699;28;19933;-78
2022/09/16 10:37:17;;;;;;;;;;;13.50;99.90;;;;;;4980422;28;20659;-76
2022/09/16 10:39:45;;;;;;;;;;;13.50;99.90;;;;;;4984322;28;19972;-78
2022/09/16 10:42:16;;;;;;;;;;;13.50;99.90;;;;;;4979793;28;20384;-78
2022/09/16 10:44:45;;;;;;;;;;;13.50;99.90;;;;;;4978710;28;19932;-77
2022/09/16 10:47:16;;;;;;;;;;;13.50;99.90;;;;;;4976774;28;19985;-77
2022/09/16 10:49:44;;;;;;;;;;;13.60;99.90;;;;;;4977339;28;20293;-79
2022/09/16 10:52:20;;;;;;;;;;;13.60;99.90;;;;;;4984393;28;20375;-77
2022/09/16 10:54:47;;;;;;;;;;;13.60;99.90;;;;;;4975708;28;19965;-77
2022/09/16 10:57:27;;;;;;;;;;;13.60;99.90;;;;;;4981127;28;19933;-77
2022/09/16 10:59:58;;;;;;;;;;;13.60;99.90;;;;;;4985516;28;20025;-79
2022/09/16 11:02:31;;;;;;;;;;;13.60;99.90;;;;;;4984097;28;20024;-75
2022/09/16 11:05:01;;;;;;;;;;;13.60;99.90;;;;;;4982098;28;20021;-75
2022/09/16 11:07:35;;;;;;;;;;;13.60;99.90;;;;;;4982045;28;19929;-75
2022/09/16 11:10:04;;;;;;;;;;;13.60;99.90;;;;;;4981673;28;20052;-76
2022/09/16 11:12:41;;;;;;;;;;;13.60;99.90;;;;;;4981668;28;20388;-76
2022/09/16 11:15:13;;;;;;;;;;;13.60;99.90;;;;;;4981000;28;20384;-77
2022/09/16 11:17:45;;;;;;;;;;;13.70;99.90;;;;;;4977946;28;19926;-77
2022/09/16 11:20:27;;;;;;;;;;;13.70;99.90;;;;;;4984248;28;20348;-78
2022/09/16 11:23:00;;;;;;;;;;;13.70;99.90;;;;;;4976460;28;20064;-78
2022/09/16 11:25:36;;;;;;;;;;;13.70;99.90;;;;;;4977860;28;19940;-77
2022/09/16 11:28:13;;;;;;;;;;;13.70;99.90;;;;;;4991837;28;19940;-78
2022/09/16 11:30:42;;;;;;;;;;;13.70;99.90;;;;;;4976634;28;19972;-78
2022/09/16 11:33:21;;;;;;;;;;;13.80;99.90;;;;;;4973829;28;19929;-78
2022/09/16 11:36:03;;;;;;;;;;;13.70;99.90;;;;;;4982446;28;19976;-78
2022/09/16 11:38:37;;;;;;;;;;;13.80;99.90;;;;;;4980282;28;19926;-78
2022/09/16 11:41:09;;;;;;;;;;;13.80;99.90;;;;;;4982689;28;20555;-78
2022/09/16 11:43:46;;;;;;;;;;;13.80;99.90;;;;;;4983275;28;20392;-78
2022/09/16 11:46:17;;;;;;;;;;;13.80;99.90;;;;;;4983585;28;20017;-75
2022/09/16 11:48:52;;;;;;;;;;;13.80;99.90;;;;;;4966354;28;20020;-78
2022/09/16 11:51:25;;;;;;;;;;;13.80;99.90;;;;;;4976854;28;19970;-77
2022/09/16 11:54:00;;;;;;;;;;;13.80;99.90;;;;;;4972918;28;19927;-78
2022/09/16 11:56:31;;;;;;;;;;;13.80;99.90;;;;;;4973763;28;20627;-77
2022/09/16 11:59:00;;;;;;;;;;;13.80;99.90;;;;;;4977908;28;20016;-77
2022/09/16 12:01:31;;;;;;;;;;;13.90;99.90;;;;;;4976217;28;19926;-79
2022/09/16 12:04:00;;;;;;;;;;;13.80;99.90;;;;;;4975786;28;19932;-77
2022/09/16 12:06:30;;;;;;;;;;;13.90;99.90;;;;;;4976469;28;19926;-78
2022/09/16 12:09:00;;;;;;;;;;;13.90;99.90;;;;;;4977204;28;20236;-77
2022/09/16 12:11:31;;;;;;;;;;;13.90;99.90;;;;;;4973249;28;20443;-79
2022/09/16 12:14:01;;;;;;;;;;;13.90;99.90;;;;;;4975209;28;20313;-79
2022/09/16 12:16:31;;;;;;;;;;;13.90;99.90;;;;;;4968898;28;19974;-78
2022/09/16 12:18:59;;;;;;;;;;;13.90;99.90;;;;;;4976339;28;19933;-77
2022/09/16 12:21:28;;;;;;;;;;;14.00;99.90;;;;;;4976130;28;20495;-77
2022/09/16 12:23:57;;;;;;;;;;;14.00;99.90;;;;;;4977456;28;19965;-77
2022/09/16 12:26:26;;;;;;;;;;;14.00;99.90;;;;;;4982385;28;19926;-77
2022/09/16 12:28:56;;;;;;;;;;;14.00;99.90;;;;;;4983395;28;19930;-77
2022/09/16 12:31:25;;;;;;;;;;;14.00;99.90;;;;;;4971886;28;19926;-80
2022/09/16 12:33:54;;;;;;;;;;;14.00;99.90;;;;;;4971704;28;20397;-77
2022/09/16 12:36:24;;;;;;;;;;;14.00;99.90;;;;;;4981828;28;19952;-78
2022/09/16 12:38:51;;;;;;;;;;;14.00;99.90;;;;;;4981212;28;19930;-77
2022/09/16 12:41:37;;;;;;;;;;;14.00;99.90;;;;;;4982358;28;20035;-77
2022/09/16 12:44:13;;;;;;;;;;;14.10;99.90;;;;;;4983817;28;20364;-78
2022/09/16 12:46:56;;;;;;;;;;;14.10;99.90;;;;;;4979831;28;19934;-78
2022/09/16 12:49:53;;;;;;;;;;;14.20;99.90;;;;;;4983861;28;20005;-78
2022/09/16 12:52:23;;;;;;;;;;;14.10;99.90;;;;;;4957256;28;21568;-78
2022/09/16 12:55:03;;;;;;;;;;;14.10;99.90;;;;;;4978016;28;20462;-78
2022/09/16 12:57:38;;;;;;;;;;;14.20;99.90;;;;;;4975804;28;19954;-77
2022/09/16 13:00:12;;;;;;;;;;;14.20;99.90;;;;;;4982364;28;19926;-81
2022/09/16 13:02:41;;;;;;;;;;;14.20;99.90;;;;;;4984813;28;19926;-80
2022/09/16 13:05:13;;;;;;;;;;;14.20;99.90;;;;;;4983039;28;19937;-77
2022/09/16 13:07:40;;;;;;;;;;;14.20;99.90;;;;;;4980487;28;19930;-78
2022/09/16 13:10:09;;;;;;;;;;;14.20;99.90;;;;;;4981398;28;21465;-78
2022/09/16 13:12:39;;;;;;;;;;;14.20;99.90;;;;;;4976926;28;20307;-81
2022/09/16 13:15:07;;;;;;;;;;;14.20;99.90;;;;;;4980635;28;19934;-78
2022/09/16 13:17:34;;;;;;;;;;;14.30;99.90;;;;;;4982338;28;19981;-76
2022/09/16 13:20:07;;;;;;;;;;;14.20;99.90;;;;;;4981115;28;20396;-78
2022/09/16 13:22:36;;;;;;;;;;;14.30;99.90;;;;;;4979161;28;20017;-77
2022/09/16 13:25:09;;;;;;;;;;;14.20;99.90;;;;;;4987089;28;19934;-77
2022/09/16 13:27:37;;;;;;;;;;;14.30;99.90;;;;;;4975759;28;20215;-78
2022/09/16 13:30:27;;;;;;;;;;;14.20;99.90;;;;;;4998986;28;20593;-78
2022/09/16 13:32:59;;;;;;;;;;;14.30;99.90;;;;;;4984758;28;20503;-77
2022/09/16 13:35:36;;;;;;;;;;;14.30;99.90;;;;;;4982157;28;19930;-77
2022/09/16 13:38:12;;;;;;;;;;;14.30;99.90;;;;;;4981583;28;19934;-78
2022/09/16 13:40:38;;;;;;;;;;;14.30;99.90;;;;;;4987571;28;19953;-82
2022/09/16 13:43:13;;;;;;;;;;;14.30;99.90;;;;;;4982840;28;20388;-77
2022/09/16 13:45:44;;;;;;;;;;;14.30;99.90;;;;;;4980429;28;20367;-77
2022/09/16 13:48:13;;;;;;;;;;;14.30;99.90;;;;;;4979819;28;19936;-77
2022/09/16 13:50:42;;;;;;;;;;;14.30;99.90;;;;;;4979018;28;20372;-80
2022/09/16 13:53:10;;;;;;;;;;;14.30;99.90;;;;;;4983567;28;19933;-80
2022/09/16 13:55:37;;;;;;;;;;;14.30;99.90;;;;;;4980535;28;19940;-77
2022/09/16 13:58:05;;;;;;;;;;;14.30;99.90;;;;;;4979456;28;19966;-77
2022/09/16 14:00:37;;;;;;;;;;;14.40;99.90;;;;;;4978419;28;20001;-76
2022/09/16 14:03:23;;;;;;;;;;;14.40;99.90;;;;;;4974283;28;20025;-77
2022/09/16 14:06:09;;;;;;;;;;;14.40;99.90;;;;;;4981614;28;19933;-79
2022/09/16 14:08:40;;;;;;;;;;;14.40;99.90;;;;;;4972146;28;20708;-77
2022/09/16 14:11:09;;;;;;;;;;;14.40;99.90;;;;;;4977841;28;19925;-79
2022/09/16 14:13:39;;;;;;;;;;;14.40;99.90;;;;;;4976866;28;19926;-77
2022/09/16 14:16:11;;;;;;;;;;;14.40;99.90;;;;;;4982193;28;20001;-77
2022/09/16 14:18:41;;;;;;;;;;;14.40;99.90;;;;;;4981544;28;20516;-78
2022/09/16 14:21:18;;;;;;;;;;;14.50;99.90;;;;;;4981989;28;20045;-78
2022/09/16 14:23:44;;;;;;;;;;;14.50;99.90;;;;;;4974842;28;19926;-77
2022/09/16 14:26:12;;;;;;;;;;;14.50;99.90;;;;;;4972377;28;19934;-77
2022/09/16 14:28:39;;;;;;;;;;;14.50;99.90;;;;;;4973689;28;19930;-77
2022/09/16 14:31:08;;;;;;;;;;;14.50;99.90;;;;;;4977189;28;19930;-78
2022/09/16 14:33:36;;;;;;;;;;;14.50;99.90;;;;;;4975420;28;20344;-79